Time,TemperatureF,DewpointF,PressureIn,WindDirection,WindDirectionDegrees,WindSpeedMPH,WindSpeedGustMPH,Humidity,HourlyPrecipIn,Conditions,Clouds,dailyrainin,SolarRadiationWatts/m^2,SoftwareType,DateUTC
2013-02-25 00:01:00,44.0,42.0,-100.00,South,184,12.0,18.0,91,0.00,,,0.00,5.000000,,2013-02-25 08:01:00,
2013-02-25 00:32:00,44.0,42.0,-100.00,South,181,16.0,27.0,93,0.03,,,0.03,4.000000,,2013-02-25 08:32:00,
2013-02-25 00:42:00,44.0,42.0,-100.00,South,181,16.0,27.0,93,0.03,,,0.03,4.000000,,2013-02-25 08:42:00,
2013-02-25 00:52:00,44.0,42.0,-100.00,South,181,16.0,27.0,93,0.03,,,0.03,4.000000,,2013-02-25 08:52:00,
2013-02-25 01:01:00,44.0,42.0,-100.00,South,181,16.0,27.0,93,0.03,,,0.03,4.000000,,2013-02-25 09:01:00,
2013-02-25 01:32:00,46.0,44.0,-100.00,South,187,15.0,28.0,94,0.13,,,0.16,4.000000,,2013-02-25 09:32:00,
2013-02-25 01:42:00,46.0,44.0,-100.00,South,187,15.0,28.0,94,0.13,,,0.16,4.000000,,2013-02-25 09:42:00,
2013-02-25 01:52:00,46.0,44.0,-100.00,South,187,15.0,28.0,94,0.13,,,0.16,4.000000,,2013-02-25 09:52:00,
2013-02-25 02:01:00,46.0,44.0,-100.00,South,187,15.0,28.0,94,0.13,,,0.16,4.000000,,2013-02-25 10:01:00,
2013-02-25 02:32:00,46.0,44.0,-100.00,NW,313,8.0,27.0,92,0.17,,,0.33,4.000000,,2013-02-25 10:32:00,
2013-02-25 02:42:00,46.0,44.0,-100.00,NW,313,8.0,27.0,92,0.17,,,0.33,4.000000,,2013-02-25 10:42:00,
2013-02-25 02:52:00,46.0,44.0,-100.00,NW,313,8.0,27.0,92,0.17,,,0.33,4.000000,,2013-02-25 10:52:00,
2013-02-25 03:01:00,46.0,44.0,-100.00,NW,313,8.0,27.0,92,0.17,,,0.33,4.000000,,2013-02-25 11:01:00,
2013-02-25 03:22:00,46.0,39.0,-100.00,WNW,303,6.0,18.0,76,0.00,,,0.33,4.000000,,2013-02-25 11:22:00,
2013-02-25 03:32:00,46.0,39.0,-100.00,WNW,303,6.0,18.0,76,0.00,,,0.33,4.000000,,2013-02-25 11:32:00,
2013-02-25 03:42:00,46.0,39.0,-100.00,WNW,303,6.0,18.0,76,0.00,,,0.33,4.000000,,2013-02-25 11:42:00,
2013-02-25 03:52:00,46.0,39.0,-100.00,WNW,303,6.0,18.0,76,0.00,,,0.33,4.000000,,2013-02-25 11:52:00,
2013-02-25 04:01:00,46.0,39.0,-100.00,WNW,303,6.0,18.0,76,0.00,,,0.33,4.000000,,2013-02-25 12:01:00,
2013-02-25 04:32:00,45.0,40.0,-100.00,NW,313,7.0,21.0,82,0.00,,,0.33,4.000000,,2013-02-25 12:32:00,
2013-02-25 04:42:00,45.0,40.0,-100.00,NW,313,7.0,21.0,82,0.00,,,0.33,4.000000,,2013-02-25 12:42:00,
2013-02-25 04:55:00,45.0,40.0,-100.00,NW,313,7.0,21.0,82,0.00,,,0.33,4.000000,,2013-02-25 12:55:00,
2013-02-25 05:01:00,45.0,40.0,-100.00,NW,313,7.0,21.0,82,0.00,,,0.33,4.000000,,2013-02-25 13:01:00,
2013-02-25 05:32:00,43.0,37.0,-100.00,NW,307,7.0,15.0,78,0.02,,,0.35,3.000000,,2013-02-25 13:32:00,
2013-02-25 05:42:00,43.0,37.0,-100.00,NW,307,7.0,15.0,78,0.02,,,0.35,3.000000,,2013-02-25 13:42:00,
2013-02-25 05:52:00,43.0,37.0,-100.00,NW,307,7.0,15.0,78,0.02,,,0.35,3.000000,,2013-02-25 13:52:00,
2013-02-25 06:02:00,43.0,37.0,-100.00,NW,307,7.0,15.0,78,0.02,,,0.35,3.000000,,2013-02-25 14:02:00,
2013-02-25 06:32:00,43.0,35.0,-100.00,NW,314,6.0,19.0,73,0.00,,,0.35,3.000000,,2013-02-25 14:32:00,
2013-02-25 06:42:00,43.0,35.0,-100.00,NW,314,6.0,19.0,73,0.00,,,0.35,3.000000,,2013-02-25 14:42:00,
2013-02-25 06:52:00,43.0,35.0,-100.00,NW,314,6.0,19.0,73,0.00,,,0.35,3.000000,,2013-02-25 14:52:00,
2013-02-25 07:02:00,43.0,35.0,-100.00,NW,314,6.0,19.0,73,0.00,,,0.35,3.000000,,2013-02-25 15:02:00,
2013-02-25 07:22:00,43.0,37.0,-100.00,NW,308,6.0,17.0,80,0.01,,,0.36,4.000000,,2013-02-25 15:22:00,
2013-02-25 07:32:00,43.0,37.0,-100.00,NW,308,6.0,17.0,80,0.01,,,0.36,4.000000,,2013-02-25 15:32:00,
2013-02-25 07:42:00,43.0,37.0,-100.00,NW,308,6.0,17.0,80,0.01,,,0.36,4.000000,,2013-02-25 15:42:00,
2013-02-25 07:52:00,43.0,37.0,-100.00,NW,308,6.0,17.0,80,0.01,,,0.36,4.000000,,2013-02-25 15:52:00,
2013-02-25 08:01:00,43.0,37.0,-100.00,NW,308,6.0,17.0,80,0.01,,,0.36,4.000000,,2013-02-25 16:01:00,
2013-02-25 08:32:00,42.0,37.0,-100.00,WNW,299,3.0,18.0,83,0.03,,,0.39,17.000000,,2013-02-25 16:32:00,
2013-02-25 08:42:00,42.0,37.0,-100.00,WNW,299,3.0,18.0,83,0.03,,,0.39,17.000000,,2013-02-25 16:42:00,
2013-02-25 08:52:00,42.0,37.0,-100.00,WNW,299,3.0,18.0,83,0.03,,,0.39,17.000000,,2013-02-25 16:52:00,
2013-02-25 09:01:00,42.0,37.0,-100.00,WNW,299,3.0,18.0,83,0.03,,,0.39,17.000000,,2013-02-25 17:01:00,
2013-02-25 09:32:00,44.0,37.0,-100.00,WSW,239,2.0,17.0,76,0.00,,,0.39,112.000000,,2013-02-25 17:32:00,
2013-02-25 09:42:00,44.0,37.0,-100.00,WSW,239,2.0,17.0,76,0.00,,,0.39,112.000000,,2013-02-25 17:42:00,
2013-02-25 09:52:00,44.0,37.0,-100.00,WSW,239,2.0,17.0,76,0.00,,,0.39,112.000000,,2013-02-25 17:52:00,
2013-02-25 10:01:00,44.0,37.0,-100.00,WSW,239,2.0,17.0,76,0.00,,,0.39,112.000000,,2013-02-25 18:01:00,
2013-02-25 10:33:00,46.0,37.0,-100.00,NW,310,8.0,16.0,71,0.00,,,0.39,173.000000,,2013-02-25 18:33:00,
2013-02-25 10:42:00,46.0,37.0,-100.00,NW,310,8.0,16.0,71,0.00,,,0.39,173.000000,,2013-02-25 18:42:00,
2013-02-25 10:52:00,46.0,37.0,-100.00,NW,310,8.0,16.0,71,0.00,,,0.39,173.000000,,2013-02-25 18:52:00,
2013-02-25 11:01:00,46.0,37.0,-100.00,NW,310,8.0,16.0,71,0.00,,,0.39,173.000000,,2013-02-25 19:01:00,
2013-02-25 11:32:00,48.0,35.0,-100.00,WNW,301,6.0,16.0,61,0.00,,,0.39,227.000000,,2013-02-25 19:32:00,
2013-02-25 11:42:00,48.0,35.0,-100.00,WNW,301,6.0,16.0,61,0.00,,,0.39,227.000000,,2013-02-25 19:42:00,
2013-02-25 11:52:00,48.0,35.0,-100.00,WNW,301,6.0,16.0,61,0.00,,,0.39,227.000000,,2013-02-25 19:52:00,
2013-02-25 12:01:00,48.0,35.0,-100.00,WNW,301,6.0,16.0,61,0.00,,,0.39,227.000000,,2013-02-25 20:01:00,
2013-02-25 12:32:00,51.0,33.0,-100.00,NW,310,6.0,16.0,49,0.00,,,0.39,575.000000,,2013-02-25 20:32:00,
2013-02-25 12:42:00,51.0,33.0,-100.00,NW,310,6.0,16.0,49,0.00,,,0.39,575.000000,,2013-02-25 20:42:00,
2013-02-25 12:52:00,51.0,33.0,-100.00,NW,310,6.0,16.0,49,0.00,,,0.39,575.000000,,2013-02-25 20:52:00,
2013-02-25 13:01:00,51.0,33.0,-100.00,NW,310,6.0,16.0,49,0.00,,,0.39,575.000000,,2013-02-25 21:01:00,
2013-02-25 13:32:00,46.0,32.0,-100.00,West,278,7.0,12.0,58,0.00,,,0.39,258.000000,,2013-02-25 21:32:00,
2013-02-25 13:42:00,46.0,32.0,-100.00,West,278,7.0,12.0,58,0.00,,,0.39,258.000000,,2013-02-25 21:42:00,
2013-02-25 13:52:00,46.0,32.0,-100.00,West,278,7.0,12.0,58,0.00,,,0.39,258.000000,,2013-02-25 21:52:00,
2013-02-25 14:01:00,46.0,32.0,-100.00,West,278,7.0,12.0,58,0.00,,,0.39,258.000000,,2013-02-25 22:01:00,
2013-02-25 14:32:00,46.0,35.0,-100.00,NW,319,9.0,18.0,66,0.00,,,0.39,336.000000,,2013-02-25 22:32:00,
2013-02-25 14:42:00,46.0,35.0,-100.00,NW,319,9.0,18.0,66,0.00,,,0.39,336.000000,,2013-02-25 22:42:00,
2013-02-25 14:52:00,46.0,35.0,-100.00,NW,319,9.0,18.0,66,0.00,,,0.39,336.000000,,2013-02-25 22:52:00,
2013-02-25 15:01:00,46.0,35.0,-100.00,NW,319,9.0,18.0,66,0.00,,,0.39,336.000000,,2013-02-25 23:01:00,
2013-02-25 15:32:00,44.0,34.0,-100.00,West,277,1.0,16.0,68,0.02,,,0.41,191.000000,,2013-02-25 23:32:00,
2013-02-25 15:42:00,44.0,34.0,-100.00,West,277,1.0,16.0,68,0.02,,,0.41,191.000000,,2013-02-25 23:42:00,
2013-02-25 15:52:00,44.0,34.0,-100.00,West,277,1.0,16.0,68,0.02,,,0.41,191.000000,,2013-02-25 23:52:00,
2013-02-25 16:01:00,44.0,34.0,-100.00,West,277,1.0,16.0,68,0.02,,,0.41,191.000000,,2013-02-26 00:01:00,
2013-02-25 16:32:00,46.0,36.0,-100.00,NW,305,0.0,7.0,67,0.00,,,0.41,264.000000,,2013-02-26 00:32:00,
2013-02-25 16:42:00,46.0,36.0,-100.00,NW,305,0.0,7.0,67,0.00,,,0.41,264.000000,,2013-02-26 00:42:00,
2013-02-25 16:52:00,46.0,36.0,-100.00,NW,305,0.0,7.0,67,0.00,,,0.41,264.000000,,2013-02-26 00:52:00,
2013-02-25 17:01:00,46.0,36.0,-100.00,NW,305,0.0,7.0,67,0.00,,,0.41,264.000000,,2013-02-26 01:01:00,
2013-02-25 17:32:00,47.0,37.0,-100.00,NW,312,0.0,8.0,69,0.00,,,0.41,138.000000,,2013-02-26 01:32:00,
2013-02-25 17:42:00,47.0,37.0,-100.00,NW,312,0.0,8.0,69,0.00,,,0.41,138.000000,,2013-02-26 01:42:00,
2013-02-25 17:52:00,47.0,37.0,-100.00,NW,312,0.0,8.0,69,0.00,,,0.41,138.000000,,2013-02-26 01:52:00,
2013-02-25 18:01:00,47.0,37.0,-100.00,NW,312,0.0,8.0,69,0.00,,,0.41,138.000000,,2013-02-26 02:01:00,
2013-02-25 18:32:00,45.0,35.0,-100.00,NW,322,3.0,8.0,68,0.00,,,0.41,30.000000,,2013-02-26 02:32:00,
2013-02-25 18:42:00,45.0,35.0,-100.00,NW,322,3.0,8.0,68,0.00,,,0.41,30.000000,,2013-02-26 02:42:00,
2013-02-25 18:52:00,45.0,35.0,-100.00,NW,322,3.0,8.0,68,0.00,,,0.41,30.000000,,2013-02-26 02:52:00,
2013-02-25 19:01:00,45.0,35.0,-100.00,NW,322,3.0,8.0,68,0.00,,,0.41,30.000000,,2013-02-26 03:01:00,
2013-02-25 19:22:00,43.0,33.0,-100.00,NW,318,0.0,8.0,67,0.00,,,0.41,4.000000,,2013-02-26 03:22:00,
2013-02-25 19:32:00,43.0,33.0,-100.00,NW,318,0.0,8.0,67,0.00,,,0.41,4.000000,,2013-02-26 03:32:00,
2013-02-25 19:42:00,43.0,33.0,-100.00,NW,318,0.0,8.0,67,0.00,,,0.41,4.000000,,2013-02-26 03:42:00,
2013-02-25 19:52:00,43.0,33.0,-100.00,NW,318,0.0,8.0,67,0.00,,,0.41,4.000000,,2013-02-26 03:52:00,
2013-02-25 20:01:00,43.0,33.0,-100.00,NW,318,0.0,8.0,67,0.00,,,0.41,4.000000,,2013-02-26 04:01:00,
2013-02-25 20:32:00,40.0,33.0,-100.00,SE,145,0.0,16.0,77,0.02,,,0.43,4.000000,,2013-02-26 04:32:00,
2013-02-25 20:42:00,40.0,33.0,-100.00,SE,145,0.0,16.0,77,0.02,,,0.43,4.000000,,2013-02-26 04:42:00,
2013-02-25 20:52:00,40.0,33.0,-100.00,SE,145,0.0,16.0,77,0.02,,,0.43,4.000000,,2013-02-26 04:52:00,
2013-02-25 21:01:00,40.0,33.0,-100.00,SE,145,0.0,16.0,77,0.02,,,0.43,4.000000,,2013-02-26 05:01:00,
2013-02-25 21:32:00,38.0,34.0,-100.00,ESE,120,0.0,4.0,87,0.00,,,0.43,4.000000,,2013-02-26 05:32:00,
2013-02-25 21:43:00,38.0,34.0,-100.00,ESE,120,0.0,4.0,87,0.00,,,0.43,4.000000,,2013-02-26 05:43:00,
2013-02-25 21:52:00,38.0,34.0,-100.00,ESE,120,0.0,4.0,87,0.00,,,0.43,4.000000,,2013-02-26 05:52:00,
2013-02-25 22:01:00,38.0,34.0,-100.00,ESE,120,0.0,4.0,87,0.00,,,0.43,4.000000,,2013-02-26 06:01:00,
2013-02-25 22:32:00,36.0,33.0,-100.00,SSE,156,0.0,3.0,90,0.00,,,0.43,3.000000,,2013-02-26 06:32:00,
2013-02-25 22:42:00,36.0,33.0,-100.00,SSE,156,0.0,3.0,90,0.00,,,0.43,3.000000,,2013-02-26 06:42:00,
2013-02-25 22:52:00,36.0,33.0,-100.00,SSE,156,0.0,3.0,90,0.00,,,0.43,3.000000,,2013-02-26 06:52:00,
2013-02-25 23:01:00,36.0,33.0,-100.00,SSE,156,0.0,3.0,90,0.00,,,0.43,3.000000,,2013-02-26 07:01:00,
2013-02-25 23:32:00,38.0,36.0,-100.00,ENE,75,0.0,6.0,92,0.00,,,0.43,3.000000,,2013-02-26 07:32:00,
2013-02-25 23:42:00,38.0,36.0,-100.00,ENE,75,0.0,6.0,92,0.00,,,0.43,3.000000,,2013-02-26 07:42:00,
2013-02-25 23:52:00,38.0,36.0,-100.00,ENE,75,0.0,6.0,92,0.00,,,0.43,3.000000,,2013-02-26 07:52:00,